sensor_id;sensor_type;location;lat;lon;timestamp;temperature;humidity
31975;DHT22;18500;43.618;1.474;2023-08-08T05:49:40;14.10;1.00
31975;DHT22;18500;43.618;1.474;2023-08-08T05:52:09;14.20;1.00
31975;DHT22;18500;43.618;1.474;2023-08-08T05:54:35;14.30;1.00
31975;DHT22;18500;43.618;1.474;2023-08-08T05:57:01;14.30;1.00
31975;DHT22;18500;43.618;1.474;2023-08-08T05:59:27;14.30;1.00
31975;DHT22;18500;43.618;1.474;2023-08-08T06:01:52;14.40;1.00
31975;DHT22;18500;43.618;1.474;2023-08-08T06:04:18;14.40;1.00
31975;DHT22;18500;43.618;1.474;2023-08-08T06:06:43;14.40;1.00
31975;DHT22;18500;43.618;1.474;2023-08-08T06:09:09;14.50;1.00
31975;DHT22;18500;43.618;1.474;2023-08-08T06:11:35;14.60;1.00
31975;DHT22;18500;43.618;1.474;2023-08-08T06:14:00;14.60;1.00
31975;DHT22;18500;43.618;1.474;2023-08-08T06:16:26;14.60;1.00
31975;DHT22;18500;43.618;1.474;2023-08-08T06:18:52;14.70;1.00
31975;DHT22;18500;43.618;1.474;2023-08-08T06:21:17;14.70;1.00
31975;DHT22;18500;43.618;1.474;2023-08-08T06:23:43;14.80;1.00
31975;DHT22;18500;43.618;1.474;2023-08-08T06:26:08;14.80;1.00
31975;DHT22;18500;43.618;1.474;2023-08-08T06:28:34;14.80;1.00
31975;DHT22;18500;43.618;1.474;2023-08-08T06:31:00;14.90;1.00
31975;DHT22;18500;43.618;1.474;2023-08-08T06:33:26;14.90;1.00
31975;DHT22;18500;43.618;1.474;2023-08-08T06:35:52;14.90;1.00
31975;DHT22;18500;43.618;1.474;2023-08-08T06:38:17;14.90;1.00
31975;DHT22;18500;43.618;1.474;2023-08-08T06:40:43;15.00;1.00
31975;DHT22;18500;43.618;1.474;2023-08-08T06:43:08;15.10;1.00
31975;DHT22;18500;43.618;1.474;2023-08-08T06:45:34;15.10;1.00
31975;DHT22;18500;43.618;1.474;2023-08-08T06:48:00;15.20;1.00
31975;DHT22;18500;43.618;1.474;2023-08-08T06:50:25;15.20;1.00
31975;DHT22;18500;43.618;1.474;2023-08-08T06:52:51;15.30;1.00
31975;DHT22;18500;43.618;1.474;2023-08-08T06:55:16;15.40;1.00
31975;DHT22;18500;43.618;1.474;2023-08-08T06:57:42;15.40;1.00
31975;DHT22;18500;43.618;1.474;2023-08-08T07:00:08;15.50;1.00
31975;DHT22;18500;43.618;1.474;2023-08-08T07:02:33;15.60;1.00
31975;DHT22;18500;43.618;1.474;2023-08-08T07:04:59;15.70;1.00
31975;DHT22;18500;43.618;1.474;2023-08-08T07:07:25;15.70;1.00
31975;DHT22;18500;43.618;1.474;2023-08-08T07:09:50;15.70;1.00
31975;DHT22;18500;43.618;1.474;2023-08-08T07:12:16;15.80;1.00
31975;DHT22;18500;43.618;1.474;2023-08-08T07:14:41;15.80;1.00
31975;DHT22;18500;43.618;1.474;2023-08-08T07:17:07;15.90;1.00
31975;DHT22;18500;43.618;1.474;2023-08-08T07:19:32;15.90;1.00
31975;DHT22;18500;43.618;1.474;2023-08-08T07:21:58;16.10;1.00
31975;DHT22;18500;43.618;1.474;2023-08-08T07:24:23;16.40;1.00
31975;DHT22;18500;43.618;1.474;2023-08-08T07:26:54;16.60;1.00
31975;DHT22;18500;43.618;1.474;2023-08-08T07:29:20;16.60;1.00
31975;DHT22;18500;43.618;1.474;2023-08-08T07:31:46;16.70;1.00
31975;DHT22;18500;43.618;1.474;2023-08-08T07:34:11;16.80;1.00
31975;DHT22;18500;43.618;1.474;2023-08-08T07:36:37;16.80;1.00
31975;DHT22;18500;43.618;1.474;2023-08-08T07:39:02;16.90;1.00
31975;DHT22;18500;43.618;1.474;2023-08-08T07:41:29;16.90;1.00
31975;DHT22;18500;43.618;1.474;2023-08-08T07:43:55;16.90;1.00
31975;DHT22;18500;43.618;1.474;2023-08-08T07:46:20;17.00;1.00
31975;DHT22;18500;43.618;1.474;2023-08-08T07:48:46;17.10;1.00
31975;DHT22;18500;43.618;1.474;2023-08-08T07:51:11;17.20;1.00
31975;DHT22;18500;43.618;1.474;2023-08-08T07:53:37;17.40;1.00
31975;DHT22;18500;43.618;1.474;2023-08-08T07:56:02;17.60;1.00
31975;DHT22;18500;43.618;1.474;2023-08-08T07:58:28;17.80;1.00
31975;DHT22;18500;43.618;1.474;2023-08-08T08:00:53;17.80;1.00
31975;DHT22;18500;43.618;1.474;2023-08-08T08:03:19;17.90;1.00
31975;DHT22;18500;43.618;1.474;2023-08-08T08:05:45;18.10;1.00
31975;DHT22;18500;43.618;1.474;2023-08-08T08:08:11;18.00;1.00
31975;DHT22;18500;43.618;1.474;2023-08-08T08:10:36;18.10;1.00
31975;DHT22;18500;43.618;1.474;2023-08-08T08:13:02;18.30;1.00
31975;DHT22;18500;43.618;1.474;2023-08-08T08:15:27;18.50;1.00
31975;DHT22;18500;43.618;1.474;2023-08-08T08:17:53;18.50;1.00
31975;DHT22;18500;43.618;1.474;2023-08-08T08:20:19;18.50;1.00
31975;DHT22;18500;43.618;1.474;2023-08-08T08:22:44;18.60;1.00
31975;DHT22;18500;43.618;1.474;2023-08-08T08:25:10;18.70;1.00
31975;DHT22;18500;43.618;1.474;2023-08-08T08:27:36;19.00;1.00
31975;DHT22;18500;43.618;1.474;2023-08-08T08:30:05;19.20;1.00
31975;DHT22;18500;43.618;1.474;2023-08-08T08:32:34;19.20;1.00
31975;DHT22;18500;43.618;1.474;2023-08-08T08:35:04;19.10;1.00
31975;DHT22;18500;43.618;1.474;2023-08-08T08:37:31;19.20;1.00
31975;DHT22;18500;43.618;1.474;2023-08-08T08:39:57;19.30;1.00
31975;DHT22;18500;43.618;1.474;2023-08-08T08:42:22;19.20;1.00
31975;DHT22;18500;43.618;1.474;2023-08-08T08:44:49;19.30;1.00
31975;DHT22;18500;43.618;1.474;2023-08-08T08:47:15;19.40;1.00
31975;DHT22;18500;43.618;1.474;2023-08-08T08:49:42;19.60;1.00
31975;DHT22;18500;43.618;1.474;2023-08-08T08:52:11;19.60;1.00
31975;DHT22;18500;43.618;1.474;2023-08-08T08:54:36;19.80;1.00
31975;DHT22;18500;43.618;1.474;2023-08-08T08:57:02;20.10;1.00
31975;DHT22;18500;43.618;1.474;2023-08-08T08:59:27;20.10;1.00
31975;DHT22;18500;43.618;1.474;2023-08-08T09:01:53;20.10;1.00
31975;DHT22;18500;43.618;1.474;2023-08-08T09:04:19;20.10;1.00
31975;DHT22;18500;43.618;1.474;2023-08-08T09:06:46;20.30;1.00
31975;DHT22;18500;43.618;1.474;2023-08-08T09:09:11;20.30;1.00
31975;DHT22;18500;43.618;1.474;2023-08-08T09:11:38;20.30;1.00
31975;DHT22;18500;43.618;1.474;2023-08-08T09:14:15;20.60;1.00
31975;DHT22;18500;43.618;1.474;2023-08-08T09:16:42;20.60;1.00
31975;DHT22;18500;43.618;1.474;2023-08-08T09:19:07;20.90;1.00
31975;DHT22;18500;43.618;1.474;2023-08-08T09:21:33;21.10;1.00
31975;DHT22;18500;43.618;1.474;2023-08-08T09:23:59;21.20;1.00
31975;DHT22;18500;43.618;1.474;2023-08-08T09:26:24;21.10;1.00
31975;DHT22;18500;43.618;1.474;2023-08-08T09:28:50;21.30;1.00
31975;DHT22;18500;43.618;1.474;2023-08-08T09:31:16;21.50;1.00
31975;DHT22;18500;43.618;1.474;2023-08-08T09:33:42;21.50;1.00
31975;DHT22;18500;43.618;1.474;2023-08-08T09:36:13;21.30;1.00
31975;DHT22;18500;43.618;1.474;2023-08-08T09:38:38;21.30;1.00
31975;DHT22;18500;43.618;1.474;2023-08-08T09:41:04;21.60;1.00
31975;DHT22;18500;43.618;1.474;2023-08-08T09:43:30;21.70;1.00
31975;DHT22;18500;43.618;1.474;2023-08-08T09:45:55;21.70;1.00
31975;DHT22;18500;43.618;1.474;2023-08-08T09:48:21;21.80;1.00
31975;DHT22;18500;43.618;1.474;2023-08-08T09:50:46;21.90;1.00
31975;DHT22;18500;43.618;1.474;2023-08-08T09:53:12;22.00;1.00
31975;DHT22;18500;43.618;1.474;2023-08-08T09:55:38;22.20;1.00
31975;DHT22;18500;43.618;1.474;2023-08-08T09:58:04;22.40;1.00
31975;DHT22;18500;43.618;1.474;2023-08-08T10:00:30;22.40;1.00
31975;DHT22;18500;43.618;1.474;2023-08-08T10:02:56;22.30;1.00
31975;DHT22;18500;43.618;1.474;2023-08-08T10:05:21;22.60;1.00
31975;DHT22;18500;43.618;1.474;2023-08-08T10:07:48;22.40;1.00
31975;DHT22;18500;43.618;1.474;2023-08-08T10:10:13;22.40;1.00
31975;DHT22;18500;43.618;1.474;2023-08-08T10:12:39;22.40;1.00
31975;DHT22;18500;43.618;1.474;2023-08-08T10:15:06;22.50;1.00
31975;DHT22;18500;43.618;1.474;2023-08-08T10:17:38;22.50;1.00
31975;DHT22;18500;43.618;1.474;2023-08-08T10:20:05;22.80;1.00
31975;DHT22;18500;43.618;1.474;2023-08-08T10:22:36;22.80;1.00
31975;DHT22;18500;43.618;1.474;2023-08-08T10:25:04;22.90;1.00
31975;DHT22;18500;43.618;1.474;2023-08-08T10:27:33;23.20;1.00
31975;DHT22;18500;43.618;1.474;2023-08-08T10:30:17;23.20;1.00
31975;DHT22;18500;43.618;1.474;2023-08-08T10:32:43;23.10;1.00
31975;DHT22;18500;43.618;1.474;2023-08-08T10:35:09;23.20;1.00
31975;DHT22;18500;43.618;1.474;2023-08-08T10:37:35;23.40;1.00
31975;DHT22;18500;43.618;1.474;2023-08-08T10:40:02;23.40;1.00
31975;DHT22;18500;43.618;1.474;2023-08-08T10:42:43;23.50;1.00
31975;DHT22;18500;43.618;1.474;2023-08-08T10:45:10;23.50;1.00
31975;DHT22;18500;43.618;1.474;2023-08-08T10:47:37;23.60;1.00
31975;DHT22;18500;43.618;1.474;2023-08-08T10:50:05;23.60;1.00
31975;DHT22;18500;43.618;1.474;2023-08-08T10:52:32;23.60;1.00
31975;DHT22;18500;43.618;1.474;2023-08-08T10:55:00;23.80;1.00
31975;DHT22;18500;43.618;1.474;2023-08-08T10:57:26;23.90;1.00
31975;DHT22;18500;43.618;1.474;2023-08-08T10:59:52;23.90;1.00
31975;DHT22;18500;43.618;1.474;2023-08-08T11:02:19;24.00;1.00
31975;DHT22;18500;43.618;1.474;2023-08-08T11:04:44;24.10;1.00
31975;DHT22;18500;43.618;1.474;2023-08-08T11:07:10;24.50;1.00
31975;DHT22;18500;43.618;1.474;2023-08-08T11:09:36;24.50;99.90
31975;DHT22;18500;43.618;1.474;2023-08-08T11:12:01;24.70;99.90
31975;DHT22;18500;43.618;1.474;2023-08-08T11:14:27;24.70;99.90
31975;DHT22;18500;43.618;1.474;2023-08-08T11:16:52;24.90;99.90
31975;DHT22;18500;43.618;1.474;2023-08-08T11:19:18;24.90;99.90
31975;DHT22;18500;43.618;1.474;2023-08-08T11:21:48;24.60;99.90
31975;DHT22;18500;43.618;1.474;2023-08-08T11:24:14;24.60;99.90
31975;DHT22;18500;43.618;1.474;2023-08-08T11:26:40;24.80;99.90
31975;DHT22;18500;43.618;1.474;2023-08-08T11:29:06;25.00;99.90
31975;DHT22;18500;43.618;1.474;2023-08-08T11:31:32;24.90;99.90
31975;DHT22;18500;43.618;1.474;2023-08-08T11:33:59;24.90;99.90
31975;DHT22;18500;43.618;1.474;2023-08-08T11:36:31;25.00;99.90
31975;DHT22;18500;43.618;1.474;2023-08-08T11:38:58;25.10;99.90
31975;DHT22;18500;43.618;1.474;2023-08-08T11:41:25;25.00;99.90
31975;DHT22;18500;43.618;1.474;2023-08-08T11:43:51;25.10;99.90
31975;DHT22;18500;43.618;1.474;2023-08-08T11:46:17;25.30;99.90
31975;DHT22;18500;43.618;1.474;2023-08-08T11:48:45;25.50;99.90
31975;DHT22;18500;43.618;1.474;2023-08-08T11:51:13;25.80;99.90
31975;DHT22;18500;43.618;1.474;2023-08-08T11:53:47;26.00;99.90
31975;DHT22;18500;43.618;1.474;2023-08-08T11:56:13;26.00;99.90
31975;DHT22;18500;43.618;1.474;2023-08-08T11:58:38;26.00;99.90
31975;DHT22;18500;43.618;1.474;2023-08-08T12:01:04;26.20;99.90
31975;DHT22;18500;43.618;1.474;2023-08-08T12:03:30;26.50;99.90
31975;DHT22;18500;43.618;1.474;2023-08-08T12:05:56;26.50;99.90
31975;DHT22;18500;43.618;1.474;2023-08-08T12:08:21;26.40;99.90
31975;DHT22;18500;43.618;1.474;2023-08-08T12:10:49;26.60;99.90
31975;DHT22;18500;43.618;1.474;2023-08-08T12:13:22;26.40;99.90
31975;DHT22;18500;43.618;1.474;2023-08-08T12:15:47;26.20;99.90
31975;DHT22;18500;43.618;1.474;2023-08-08T12:18:15;26.20;99.90
31975;DHT22;18500;43.618;1.474;2023-08-08T12:20:41;26.40;99.90
31975;DHT22;18500;43.618;1.474;2023-08-08T12:23:07;26.80;99.90
31975;DHT22;18500;43.618;1.474;2023-08-08T12:25:32;26.70;99.90
31975;DHT22;18500;43.618;1.474;2023-08-08T12:27:58;26.50;99.90
31975;DHT22;18500;43.618;1.474;2023-08-08T12:30:23;27.00;99.90
31975;DHT22;18500;43.618;1.474;2023-08-08T12:32:49;26.90;99.90
31975;DHT22;18500;43.618;1.474;2023-08-08T12:35:14;27.20;99.90
31975;DHT22;18500;43.618;1.474;2023-08-08T12:37:41;27.30;99.90
31975;DHT22;18500;43.618;1.474;2023-08-08T12:40:07;28.30;99.90
31975;DHT22;18500;43.618;1.474;2023-08-08T12:42:33;33.10;99.90
31975;DHT22;18500;43.618;1.474;2023-08-08T12:44:58;37.10;99.90
31975;DHT22;18500;43.618;1.474;2023-08-08T12:47:24;39.90;99.90
31975;DHT22;18500;43.618;1.474;2023-08-08T12:49:49;40.70;99.90
31975;DHT22;18500;43.618;1.474;2023-08-08T12:52:15;41.90;99.90
31975;DHT22;18500;43.618;1.474;2023-08-08T12:54:40;43.10;99.90
31975;DHT22;18500;43.618;1.474;2023-08-08T12:57:06;44.40;99.90
31975;DHT22;18500;43.618;1.474;2023-08-08T12:59:32;43.00;99.90
31975;DHT22;18500;43.618;1.474;2023-08-08T13:01:57;44.20;99.90
31975;DHT22;18500;43.618;1.474;2023-08-08T13:04:23;45.00;99.90
31975;DHT22;18500;43.618;1.474;2023-08-08T13:06:48;44.30;99.90
31975;DHT22;18500;43.618;1.474;2023-08-08T13:09:14;43.30;99.90
31975;DHT22;18500;43.618;1.474;2023-08-08T13:11:40;44.30;99.90
31975;DHT22;18500;43.618;1.474;2023-08-08T13:14:06;46.00;99.90
31975;DHT22;18500;43.618;1.474;2023-08-08T13:16:32;46.40;99.90
31975;DHT22;18500;43.618;1.474;2023-08-08T13:18:57;46.30;99.90
31975;DHT22;18500;43.618;1.474;2023-08-08T13:21:23;46.80;99.90
31975;DHT22;18500;43.618;1.474;2023-08-08T13:23:48;40.90;99.90
31975;DHT22;18500;43.618;1.474;2023-08-08T13:26:15;42.80;99.90
31975;DHT22;18500;43.618;1.474;2023-08-08T13:28:40;45.50;99.90
31975;DHT22;18500;43.618;1.474;2023-08-08T13:31:06;41.20;99.90
31975;DHT22;18500;43.618;1.474;2023-08-08T13:33:32;42.50;99.90
31975;DHT22;18500;43.618;1.474;2023-08-08T13:35:59;44.30;99.90
31975;DHT22;18500;43.618;1.474;2023-08-08T13:38:25;45.30;99.90
31975;DHT22;18500;43.618;1.474;2023-08-08T13:40:50;42.20;99.90
31975;DHT22;18500;43.618;1.474;2023-08-08T13:43:16;38.30;99.90
31975;DHT22;18500;43.618;1.474;2023-08-08T13:45:41;41.70;99.90
31975;DHT22;18500;43.618;1.474;2023-08-08T13:48:07;43.20;99.90
31975;DHT22;18500;43.618;1.474;2023-08-08T13:50:32;44.10;99.90
31975;DHT22;18500;43.618;1.474;2023-08-08T13:52:58;44.70;99.90
31975;DHT22;18500;43.618;1.474;2023-08-08T13:55:23;46.10;99.90
31975;DHT22;18500;43.618;1.474;2023-08-08T13:57:50;46.80;99.90
31975;DHT22;18500;43.618;1.474;2023-08-08T14:00:16;47.30;99.90
31975;DHT22;18500;43.618;1.474;2023-08-08T14:02:42;47.40;99.90
31975;DHT22;18500;43.618;1.474;2023-08-08T14:05:07;45.60;99.90
31975;DHT22;18500;43.618;1.474;2023-08-08T14:07:33;45.80;99.90
31975;DHT22;18500;43.618;1.474;2023-08-08T14:10:00;45.80;99.90
31975;DHT22;18500;43.618;1.474;2023-08-08T14:12:25;46.50;99.90
31975;DHT22;18500;43.618;1.474;2023-08-08T14:14:51;46.10;99.90
31975;DHT22;18500;43.618;1.474;2023-08-08T14:17:16;43.80;99.90
31975;DHT22;18500;43.618;1.474;2023-08-08T14:19:42;40.80;99.90
31975;DHT22;18500;43.618;1.474;2023-08-08T14:22:07;39.60;99.90
31975;DHT22;18500;43.618;1.474;2023-08-08T14:24:33;38.30;99.90
31975;DHT22;18500;43.618;1.474;2023-08-08T14:26:58;39.40;99.90
31975;DHT22;18500;43.618;1.474;2023-08-08T14:29:24;38.00;99.90
31975;DHT22;18500;43.618;1.474;2023-08-08T14:31:49;36.00;99.90
31975;DHT22;18500;43.618;1.474;2023-08-08T14:34:15;33.80;99.90
31975;DHT22;18500;43.618;1.474;2023-08-08T14:36:41;33.00;99.90
31975;DHT22;18500;43.618;1.474;2023-08-08T14:39:06;32.80;99.90
31975;DHT22;18500;43.618;1.474;2023-08-08T14:41:32;32.70;99.90
31975;DHT22;18500;43.618;1.474;2023-08-08T14:43:58;32.50;99.90
31975;DHT22;18500;43.618;1.474;2023-08-08T14:46:23;32.30;99.90
31975;DHT22;18500;43.618;1.474;2023-08-08T14:48:49;31.80;99.90
31975;DHT22;18500;43.618;1.474;2023-08-08T14:51:14;31.50;99.90
31975;DHT22;18500;43.618;1.474;2023-08-08T14:53:42;31.30;99.90
31975;DHT22;18500;43.618;1.474;2023-08-08T14:56:08;31.20;99.90
31975;DHT22;18500;43.618;1.474;2023-08-08T14:58:33;31.20;99.90
31975;DHT22;18500;43.618;1.474;2023-08-08T15:01:00;31.40;99.90
31975;DHT22;18500;43.618;1.474;2023-08-08T15:03:26;31.20;99.90
31975;DHT22;18500;43.618;1.474;2023-08-08T15:05:51;31.00;99.90
31975;DHT22;18500;43.618;1.474;2023-08-08T15:08:17;31.00;99.90
31975;DHT22;18500;43.618;1.474;2023-08-08T15:10:43;30.90;99.90
31975;DHT22;18500;43.618;1.474;2023-08-08T15:13:09;31.10;99.90
31975;DHT22;18500;43.618;1.474;2023-08-08T15:15:35;30.80;99.90
31975;DHT22;18500;43.618;1.474;2023-08-08T15:18:00;30.80;99.90
31975;DHT22;18500;43.618;1.474;2023-08-08T15:20:26;30.70;99.90
31975;DHT22;18500;43.618;1.474;2023-08-08T15:22:51;30.60;99.90
31975;DHT22;18500;43.618;1.474;2023-08-08T15:25:17;30.50;99.90
31975;DHT22;18500;43.618;1.474;2023-08-08T15:27:42;30.50;99.90
31975;DHT22;18500;43.618;1.474;2023-08-08T15:30:08;30.10;99.90
31975;DHT22;18500;43.618;1.474;2023-08-08T15:32:34;30.20;99.90
31975;DHT22;18500;43.618;1.474;2023-08-08T15:34:59;30.30;99.90
31975;DHT22;18500;43.618;1.474;2023-08-08T15:37:25;30.40;99.90
31975;DHT22;18500;43.618;1.474;2023-08-08T15:39:50;30.70;99.90
31975;DHT22;18500;43.618;1.474;2023-08-08T15:42:16;30.90;99.90
31975;DHT22;18500;43.618;1.474;2023-08-08T15:44:41;30.80;99.90
31975;DHT22;18500;43.618;1.474;2023-08-08T15:47:07;30.40;99.90
31975;DHT22;18500;43.618;1.474;2023-08-08T15:49:34;30.10;99.90
31975;DHT22;18500;43.618;1.474;2023-08-08T15:51:59;30.00;99.90
31975;DHT22;18500;43.618;1.474;2023-08-08T15:54:25;30.30;99.90
31975;DHT22;18500;43.618;1.474;2023-08-08T15:56:50;30.10;99.90
31975;DHT22;18500;43.618;1.474;2023-08-08T15:59:17;29.90;99.90
31975;DHT22;18500;43.618;1.474;2023-08-08T16:01:42;29.90;99.90
31975;DHT22;18500;43.618;1.474;2023-08-08T16:04:08;29.80;99.90
31975;DHT22;18500;43.618;1.474;2023-08-08T16:06:35;29.80;99.90
31975;DHT22;18500;43.618;1.474;2023-08-08T16:09:01;29.80;99.90
31975;DHT22;18500;43.618;1.474;2023-08-08T16:11:27;29.50;99.90
31975;DHT22;18500;43.618;1.474;2023-08-08T16:13:53;29.30;99.90
31975;DHT22;18500;43.618;1.474;2023-08-08T16:16:18;29.20;99.90
31975;DHT22;18500;43.618;1.474;2023-08-08T16:18:44;29.30;99.90
31975;DHT22;18500;43.618;1.474;2023-08-08T16:21:10;29.20;99.90
31975;DHT22;18500;43.618;1.474;2023-08-08T16:23:36;29.30;99.90
31975;DHT22;18500;43.618;1.474;2023-08-08T16:26:01;29.10;99.90
31975;DHT22;18500;43.618;1.474;2023-08-08T16:28:27;29.00;99.90
31975;DHT22;18500;43.618;1.474;2023-08-08T16:30:54;28.90;99.90
31975;DHT22;18500;43.618;1.474;2023-08-08T16:33:20;28.90;99.90
31975;DHT22;18500;43.618;1.474;2023-08-08T16:35:46;28.90;99.90
31975;DHT22;18500;43.618;1.474;2023-08-08T16:38:11;28.70;99.90
31975;DHT22;18500;43.618;1.474;2023-08-08T16:40:37;28.60;99.90
31975;DHT22;18500;43.618;1.474;2023-08-08T16:43:03;28.60;99.90
31975;DHT22;18500;43.618;1.474;2023-08-08T16:45:28;28.50;99.90
31975;DHT22;18500;43.618;1.474;2023-08-08T16:47:54;28.30;99.90
31975;DHT22;18500;43.618;1.474;2023-08-08T16:50:19;28.20;99.90
31975;DHT22;18500;43.618;1.474;2023-08-08T16:52:45;28.20;99.90
31975;DHT22;18500;43.618;1.474;2023-08-08T16:55:11;28.20;99.90
31975;DHT22;18500;43.618;1.474;2023-08-08T16:57:37;28.10;99.90
31975;DHT22;18500;43.618;1.474;2023-08-08T17:00:03;28.00;99.90
31975;DHT22;18500;43.618;1.474;2023-08-08T17:02:29;28.10;99.90
31975;DHT22;18500;43.618;1.474;2023-08-08T17:04:55;28.00;99.90
31975;DHT22;18500;43.618;1.474;2023-08-08T17:07:20;27.90;99.90
31975;DHT22;18500;43.618;1.474;2023-08-08T17:09:48;27.90;99.90
31975;DHT22;18500;43.618;1.474;2023-08-08T17:12:14;27.80;99.90
31975;DHT22;18500;43.618;1.474;2023-08-08T17:14:39;27.90;99.90
31975;DHT22;18500;43.618;1.474;2023-08-08T17:17:05;27.80;99.90
31975;DHT22;18500;43.618;1.474;2023-08-08T17:19:30;27.70;99.90
31975;DHT22;18500;43.618;1.474;2023-08-08T17:21:56;27.70;99.90
31975;DHT22;18500;43.618;1.474;2023-08-08T17:24:22;27.70;99.90
31975;DHT22;18500;43.618;1.474;2023-08-08T17:26:47;27.50;99.90
31975;DHT22;18500;43.618;1.474;2023-08-08T17:29:13;27.30;99.90
31975;DHT22;18500;43.618;1.474;2023-08-08T17:31:38;27.20;99.90
31975;DHT22;18500;43.618;1.474;2023-08-08T17:34:04;27.30;99.90
31975;DHT22;18500;43.618;1.474;2023-08-08T17:36:31;27.30;99.90
31975;DHT22;18500;43.618;1.474;2023-08-08T17:38:58;27.10;99.90
31975;DHT22;18500;43.618;1.474;2023-08-08T17:41:23;27.10;99.90
31975;DHT22;18500;43.618;1.474;2023-08-08T17:43:49;27.00;99.90
31975;DHT22;18500;43.618;1.474;2023-08-08T17:46:15;26.90;99.90
31975;DHT22;18500;43.618;1.474;2023-08-08T17:48:40;26.80;99.90
31975;DHT22;18500;43.618;1.474;2023-08-08T17:51:06;26.70;99.90
31975;DHT22;18500;43.618;1.474;2023-08-08T17:53:33;26.70;99.90
31975;DHT22;18500;43.618;1.474;2023-08-08T17:55:58;26.60;99.90
31975;DHT22;18500;43.618;1.474;2023-08-08T17:58:24;26.60;99.90
31975;DHT22;18500;43.618;1.474;2023-08-08T18:00:50;26.50;99.90
31975;DHT22;18500;43.618;1.474;2023-08-08T18:03:16;26.50;99.90
31975;DHT22;18500;43.618;1.474;2023-08-08T18:05:42;26.40;99.90
31975;DHT22;18500;43.618;1.474;2023-08-08T18:08:07;26.80;99.90
31975;DHT22;18500;43.618;1.474;2023-08-08T18:10:33;26.80;99.90
31975;DHT22;18500;43.618;1.474;2023-08-08T18:13:03;26.50;99.90
31975;DHT22;18500;43.618;1.474;2023-08-08T18:15:28;26.40;99.90
31975;DHT22;18500;43.618;1.474;2023-08-08T18:17:54;26.30;99.90
31975;DHT22;18500;43.618;1.474;2023-08-08T18:20:20;26.30;99.90
31975;DHT22;18500;43.618;1.474;2023-08-08T18:22:45;26.20;99.90
31975;DHT22;18500;43.618;1.474;2023-08-08T18:25:11;26.00;99.90
31975;DHT22;18500;43.618;1.474;2023-08-08T18:27:38;25.90;99.90
31975;DHT22;18500;43.618;1.474;2023-08-08T18:30:04;25.70;99.90
31975;DHT22;18500;43.618;1.474;2023-08-08T18:32:30;25.70;99.90
31975;DHT22;18500;43.618;1.474;2023-08-08T18:34:56;25.60;99.90
31975;DHT22;18500;43.618;1.474;2023-08-08T18:37:21;25.50;99.90
31975;DHT22;18500;43.618;1.474;2023-08-08T18:39:47;25.40;99.90
31975;DHT22;18500;43.618;1.474;2023-08-08T18:42:13;25.30;99.90
31975;DHT22;18500;43.618;1.474;2023-08-08T18:44:38;25.10;99.90
31975;DHT22;18500;43.618;1.474;2023-08-08T18:47:04;25.00;99.90
31975;DHT22;18500;43.618;1.474;2023-08-08T18:49:29;24.90;99.90
31975;DHT22;18500;43.618;1.474;2023-08-08T18:51:57;24.70;99.90
31975;DHT22;18500;43.618;1.474;2023-08-08T18:54:22;24.60;99.90
31975;DHT22;18500;43.618;1.474;2023-08-08T18:56:48;24.60;99.90
31975;DHT22;18500;43.618;1.474;2023-08-08T18:59:13;24.50;99.90
31975;DHT22;18500;43.618;1.474;2023-08-08T19:01:39;24.40;99.90
31975;DHT22;18500;43.618;1.474;2023-08-08T19:04:04;24.20;99.90
31975;DHT22;18500;43.618;1.474;2023-08-08T19:06:30;24.20;99.90
31975;DHT22;18500;43.618;1.474;2023-08-08T19:08:55;24.00;99.90
31975;DHT22;18500;43.618;1.474;2023-08-08T19:11:21;24.00;99.90
31975;DHT22;18500;43.618;1.474;2023-08-08T19:13:47;23.80;99.90
31975;DHT22;18500;43.618;1.474;2023-08-08T19:16:12;23.70;99.90
31975;DHT22;18500;43.618;1.474;2023-08-08T19:18:38;23.60;99.90
31975;DHT22;18500;43.618;1.474;2023-08-08T19:21:03;23.50;99.90
31975;DHT22;18500;43.618;1.474;2023-08-08T19:23:29;23.40;99.90
31975;DHT22;18500;43.618;1.474;2023-08-08T19:25:58;23.30;99.90
31975;DHT22;18500;43.618;1.474;2023-08-08T19:28:24;23.30;99.90
31975;DHT22;18500;43.618;1.474;2023-08-08T19:30:49;23.30;99.90
31975;DHT22;18500;43.618;1.474;2023-08-08T19:33:15;23.20;99.90
31975;DHT22;18500;43.618;1.474;2023-08-08T19:35:41;23.10;99.90
31975;DHT22;18500;43.618;1.474;2023-08-08T19:38:06;23.00;99.90
31975;DHT22;18500;43.618;1.474;2023-08-08T19:40:32;22.90;99.90
31975;DHT22;18500;43.618;1.474;2023-08-08T19:42:57;22.80;99.90
31975;DHT22;18500;43.618;1.474;2023-08-08T19:45:23;22.70;99.90
31975;DHT22;18500;43.618;1.474;2023-08-08T19:47:48;22.70;99.90
31975;DHT22;18500;43.618;1.474;2023-08-08T19:50:14;22.60;99.90
31975;DHT22;18500;43.618;1.474;2023-08-08T19:52:39;22.50;99.90
31975;DHT22;18500;43.618;1.474;2023-08-08T19:55:05;22.40;99.90
31975;DHT22;18500;43.618;1.474;2023-08-08T19:57:33;22.30;99.90
31975;DHT22;18500;43.618;1.474;2023-08-08T19:59:58;22.30;99.90
31975;DHT22;18500;43.618;1.474;2023-08-08T20:02:24;22.20;99.90
31975;DHT22;18500;43.618;1.474;2023-08-08T20:04:50;22.00;99.90
31975;DHT22;18500;43.618;1.474;2023-08-08T20:07:15;22.00;99.90
31975;DHT22;18500;43.618;1.474;2023-08-08T20:09:41;21.90;99.90
31975;DHT22;18500;43.618;1.474;2023-08-08T20:12:06;21.90;99.90
31975;DHT22;18500;43.618;1.474;2023-08-08T20:14:32;21.70;99.90
31975;DHT22;18500;43.618;1.474;2023-08-08T20:16:58;21.70;99.90
31975;DHT22;18500;43.618;1.474;2023-08-08T20:19:23;21.70;99.90
31975;DHT22;18500;43.618;1.474;2023-08-08T20:21:49;21.60;99.90
31975;DHT22;18500;43.618;1.474;2023-08-08T20:24:15;21.50;99.90
31975;DHT22;18500;43.618;1.474;2023-08-08T20:26:40;21.50;99.90
31975;DHT22;18500;43.618;1.474;2023-08-08T20:29:06;21.40;99.90
31975;DHT22;18500;43.618;1.474;2023-08-08T20:31:31;21.40;99.90
31975;DHT22;18500;43.618;1.474;2023-08-08T20:33:57;21.30;99.90
31975;DHT22;18500;43.618;1.474;2023-08-08T20:36:23;21.30;99.90
31975;DHT22;18500;43.618;1.474;2023-08-08T20:38:48;21.20;99.90
31975;DHT22;18500;43.618;1.474;2023-08-08T20:41:14;21.10;99.90
31975;DHT22;18500;43.618;1.474;2023-08-08T20:43:39;21.10;99.90
31975;DHT22;18500;43.618;1.474;2023-08-08T20:46:06;21.00;99.90
31975;DHT22;18500;43.618;1.474;2023-08-08T20:48:32;20.90;99.90
31975;DHT22;18500;43.618;1.474;2023-08-08T20:50:58;20.90;99.90
31975;DHT22;18500;43.618;1.474;2023-08-08T20:53:23;20.80;99.90
31975;DHT22;18500;43.618;1.474;2023-08-08T20:55:49;20.70;99.90
31975;DHT22;18500;43.618;1.474;2023-08-08T20:58:15;20.70;99.90
31975;DHT22;18500;43.618;1.474;2023-08-08T21:00:41;20.70;99.90
31975;DHT22;18500;43.618;1.474;2023-08-08T21:03:06;20.50;99.90
31975;DHT22;18500;43.618;1.474;2023-08-08T21:05:32;20.50;99.90
31975;DHT22;18500;43.618;1.474;2023-08-08T21:07:57;20.40;99.90
31975;DHT22;18500;43.618;1.474;2023-08-08T21:10:23;20.40;99.90
31975;DHT22;18500;43.618;1.474;2023-08-08T21:12:48;20.40;99.90
31975;DHT22;18500;43.618;1.474;2023-08-08T21:15:14;20.30;99.90